createdAt,value
2023-04-26T00:02:28.604Z,2.00
2023-04-26T00:07:33.586Z,0.00
2023-04-26T00:12:40.528Z,4.00
2023-04-26T00:17:45.405Z,2.00
2023-04-26T00:22:51.254Z,6.50
2023-04-26T00:27:56.012Z,2.00
2023-04-26T00:33:00.864Z,0.50
2023-04-26T00:38:06.562Z,1.00
2023-04-26T00:43:12.613Z,0.00
2023-04-26T00:48:18.275Z,2.50
2023-04-26T00:53:23.796Z,2.00
2023-04-26T00:58:29.110Z,2.00
2023-04-26T01:03:36.004Z,6.00
2023-04-26T01:08:41.300Z,2.00
2023-04-26T01:13:46.914Z,2.00
2023-04-26T01:18:57.342Z,5.50
2023-04-26T01:24:02.829Z,2.00
2023-04-26T01:29:17.068Z,2.00
2023-04-26T01:34:22.123Z,0.67
2023-04-26T01:39:27.294Z,4.00
2023-04-26T01:49:39.310Z,5.33
2023-04-26T01:54:44.194Z,3.33
2023-04-26T01:59:49.001Z,2.50
2023-04-26T02:04:54.019Z,4.00
2023-04-26T02:10:01.050Z,6.00
2023-04-26T02:15:08.169Z,5.00
2023-04-26T02:20:15.194Z,4.50
2023-04-26T02:25:21.249Z,14.75
2023-04-26T02:30:26.299Z,10.00
2023-04-26T02:35:31.519Z,5.33
2023-04-26T02:45:46.209Z,2.00
2023-04-26T02:50:51.636Z,4.50
2023-04-26T02:55:57.870Z,2.50
2023-04-26T03:01:02.958Z,8.67
2023-04-26T03:06:08.905Z,8.00
2023-04-26T03:11:14.056Z,4.00
2023-04-26T03:16:23.428Z,7.00
2023-04-26T03:21:29.387Z,6.00
2023-04-26T03:26:36.272Z,4.00
2023-04-26T03:31:41.410Z,3.50
2023-04-26T03:36:46.514Z,4.00
2023-04-26T03:41:52.564Z,4.00
2023-04-26T03:46:57.760Z,4.00
2023-04-26T03:52:04.144Z,3.33
2023-04-26T03:57:09.188Z,3.33
2023-04-26T04:02:16.147Z,6.00
2023-04-26T04:07:21.158Z,12.00
2023-04-26T04:12:27.467Z,6.00
2023-04-26T04:17:32.577Z,11.33
2023-04-26T04:27:44.808Z,8.50
2023-04-26T04:37:55.764Z,7.50
2023-04-26T04:43:03.644Z,3.33
2023-04-26T04:48:10.304Z,11.00
2023-04-26T04:53:17.640Z,9.33
2023-04-26T04:58:23.822Z,7.00
2023-04-26T05:03:29.204Z,8.67
2023-04-26T05:08:34.673Z,2.67
2023-04-26T05:13:42.403Z,13.00
2023-04-26T05:18:50.442Z,3.00
2023-04-26T05:23:55.671Z,6.00
2023-04-26T05:29:01.410Z,6.00
2023-04-26T05:34:39.823Z,10.00
2023-04-26T05:39:47.806Z,6.67
2023-04-26T05:44:52.966Z,4.67
2023-04-26T05:49:58.040Z,11.50
2023-04-26T05:55:07.233Z,10.50
2023-04-26T06:00:14.302Z,7.00
2023-04-26T06:05:20.938Z,15.00
2023-04-26T06:10:26.116Z,6.00
2023-04-26T06:15:34.839Z,9.33
2023-04-26T06:20:39.617Z,10.50
2023-04-26T06:25:46.853Z,13.00
2023-04-26T06:30:51.839Z,5.50
2023-04-26T06:35:57.006Z,13.00
2023-04-26T06:41:02.233Z,7.50
2023-04-26T06:46:07.778Z,13.33
2023-04-26T06:51:13.958Z,10.67
2023-04-26T06:56:20.182Z,8.00
2023-04-26T07:06:29.886Z,14.00
2023-04-26T07:11:34.722Z,9.50
2023-04-26T07:16:39.770Z,13.00
2023-04-26T07:21:45.891Z,7.33
2023-04-26T07:26:51.495Z,11.50
2023-04-26T07:31:56.384Z,16.33
2023-04-26T07:37:01.795Z,13.75
2023-04-26T07:42:07.103Z,13.75
2023-04-26T07:47:15.802Z,10.50
2023-04-26T07:52:20.884Z,10.00
2023-04-26T07:57:26.877Z,8.00
2023-04-26T08:02:43.458Z,11.00
2023-04-26T08:12:54.563Z,13.33
2023-04-26T08:17:59.697Z,14.00
2023-04-26T08:23:04.789Z,9.50
2023-04-26T08:28:09.954Z,7.50
2023-04-26T08:33:15.090Z,9.33
2023-04-26T08:38:21.871Z,12.75
2023-04-26T08:43:28.729Z,8.00
2023-04-26T08:48:38.565Z,12.75
2023-04-26T08:53:44.657Z,12.00
2023-04-26T08:58:49.717Z,11.33
2023-04-26T09:03:56.713Z,14.25
2023-04-26T09:09:09.366Z,13.25
2023-04-26T09:14:15.115Z,13.00
2023-04-26T09:19:32.567Z,11.50
2023-04-26T09:24:56.308Z,13.00
2023-04-26T09:30:13.964Z,11.00
2023-04-26T09:35:29.890Z,12.67
2023-04-26T09:40:41.995Z,13.33
2023-04-26T09:45:52.030Z,11.33
2023-04-26T09:51:00.058Z,12.33
2023-04-26T09:56:11.222Z,15.00
2023-04-26T10:01:21.401Z,8.00
2023-04-26T10:06:28.686Z,12.00
2023-04-26T10:11:36.265Z,14.00
2023-04-26T10:16:43.941Z,11.50
2023-04-26T10:21:52.929Z,17.50
2023-04-26T10:26:59.908Z,12.75
2023-04-26T10:32:08.581Z,12.00
2023-04-26T10:37:19.430Z,10.00
2023-04-26T10:42:33.564Z,13.00
2023-04-26T10:47:39.631Z,13.25
2023-04-26T10:53:04.683Z,14.50
2023-04-26T10:58:31.712Z,12.00
2023-04-26T11:03:38.316Z,14.00
2023-04-26T11:08:45.394Z,12.50
2023-04-26T11:13:50.928Z,12.25
2023-04-26T11:18:58.346Z,19.33
2023-04-26T11:24:03.661Z,7.33
2023-04-26T11:29:12.561Z,10.00
2023-04-26T11:34:18.113Z,14.00
2023-04-26T11:39:23.918Z,10.00
2023-04-26T11:44:29.129Z,17.50
2023-04-26T11:49:36.022Z,15.50
2023-04-26T11:54:42.093Z,12.00
2023-04-26T11:59:48.243Z,13.25
2023-04-26T12:05:02.056Z,11.00
2023-04-26T12:10:35.999Z,14.50
2023-04-26T12:15:41.695Z,15.00
2023-04-26T12:20:50.355Z,14.33
2023-04-26T12:25:58.155Z,14.50
2023-04-26T12:31:05.529Z,18.00
2023-04-26T12:36:15.146Z,19.67
2023-04-26T12:41:20.763Z,18.25
2023-04-26T12:46:27.473Z,15.00
2023-04-26T12:51:33.394Z,13.33
2023-04-26T12:56:44.784Z,17.50
2023-04-26T13:01:50.257Z,11.00
2023-04-26T13:06:56.203Z,14.00
2023-04-26T13:12:02.685Z,11.33
2023-04-26T13:17:12.350Z,10.00
2023-04-26T13:22:18.643Z,16.50
2023-04-26T13:27:24.238Z,12.50
2023-04-26T13:32:31.828Z,13.00
2023-04-26T13:37:38.570Z,13.00
2023-04-26T13:42:44.603Z,13.50
2023-04-26T13:47:50.269Z,12.00
2023-04-26T13:52:56.349Z,23.00
2023-04-26T13:58:02.117Z,13.33
2023-04-26T14:03:07.897Z,13.00
2023-04-26T14:08:14.019Z,14.00
2023-04-26T14:13:19.910Z,12.00
2023-04-26T14:23:30.142Z,14.00
2023-04-26T14:28:37.830Z,17.25
2023-04-26T14:33:43.688Z,19.00
2023-04-26T14:38:49.484Z,18.00
2023-04-26T14:43:55.696Z,13.25
2023-04-26T14:49:02.624Z,14.00
2023-04-26T14:54:08.247Z,15.00
2023-04-26T14:59:13.989Z,10.00
2023-04-26T15:04:19.692Z,12.00
2023-04-26T15:09:25.657Z,14.67
2023-04-26T15:14:31.178Z,14.50
2023-04-26T15:19:38.433Z,17.00
2023-04-26T15:24:43.812Z,15.50
2023-04-26T15:29:49.145Z,16.50
2023-04-26T15:34:56.763Z,13.00
2023-04-26T15:40:02.473Z,10.50
2023-04-26T15:45:08.270Z,14.75
2023-04-26T15:50:14.257Z,16.50
2023-04-26T15:55:22.372Z,12.67
2023-04-26T16:00:29.713Z,18.67
2023-04-26T16:05:35.528Z,18.67
2023-04-26T16:10:41.018Z,9.00
2023-04-26T16:15:47.562Z,15.00
2023-04-26T16:20:53.344Z,12.67
2023-04-26T16:25:59.915Z,13.75
2023-04-26T16:31:06.696Z,17.00
2023-04-26T16:36:12.340Z,20.00
2023-04-26T16:41:19.564Z,8.50
2023-04-26T16:46:24.787Z,14.75
2023-04-26T16:51:30.335Z,12.75
2023-04-26T16:56:35.683Z,16.00
2023-04-26T17:01:41.976Z,19.50
2023-04-26T17:06:47.483Z,15.00
2023-04-26T17:11:53.738Z,13.75
2023-04-26T17:16:59.122Z,12.00
2023-04-26T17:22:04.505Z,14.00
2023-04-26T17:27:09.900Z,23.00
2023-04-26T17:32:15.687Z,17.00
2023-04-26T17:37:21.514Z,12.25
2023-04-26T17:47:32.279Z,16.00
2023-04-26T17:52:38.556Z,20.50
2023-04-26T17:57:44.311Z,14.33
2023-04-26T18:02:49.954Z,14.50
2023-04-26T18:07:55.746Z,17.25
2023-04-26T18:13:01.597Z,14.25
2023-04-26T18:18:09.180Z,14.00
2023-04-26T18:23:14.527Z,13.50
2023-04-26T18:28:19.761Z,15.25
2023-04-26T18:33:25.732Z,16.00
2023-04-26T18:38:31.174Z,14.00
2023-04-26T18:43:36.817Z,15.00
2023-04-26T18:48:42.214Z,14.00
2023-04-26T18:53:47.773Z,18.67
2023-04-26T18:58:53.326Z,13.00
2023-04-26T19:03:58.666Z,15.00
2023-04-26T19:09:05.814Z,8.00
2023-04-26T19:14:11.309Z,20.00
2023-04-26T19:19:16.382Z,10.50
2023-04-26T19:24:22.892Z,19.00
2023-04-26T19:39:39.193Z,19.75
2023-04-26T19:44:44.341Z,11.00
2023-04-26T19:49:50.696Z,15.00
2023-04-26T19:54:58.297Z,15.50
2023-04-26T20:00:03.259Z,16.00
2023-04-26T20:05:11.770Z,14.33
2023-04-26T20:10:17.294Z,15.00
2023-04-26T20:15:22.502Z,14.00
2023-04-26T20:20:27.172Z,14.50
2023-04-26T20:25:33.310Z,21.33
2023-04-26T20:30:39.518Z,15.00
2023-04-26T20:35:44.774Z,20.00
2023-04-26T20:40:50.199Z,16.75
2023-04-26T20:45:56.048Z,14.00
2023-04-26T20:51:02.253Z,17.00
2023-04-26T20:56:07.676Z,23.50
2023-04-26T21:01:13.699Z,11.50
2023-04-26T21:06:18.674Z,14.25
2023-04-26T21:11:23.429Z,16.67
2023-04-26T21:16:28.890Z,12.00
2023-04-26T21:21:34.094Z,14.50
2023-04-26T21:26:39.103Z,18.33
2023-04-26T21:36:49.251Z,13.00
2023-04-26T21:41:54.374Z,19.50
2023-04-26T21:46:59.146Z,16.25
2023-04-26T21:52:04.304Z,19.50
2023-04-26T21:57:11.574Z,13.75
2023-04-26T22:02:16.800Z,18.50
2023-04-26T22:07:22.264Z,18.75
2023-04-26T22:12:29.683Z,9.00
2023-04-26T22:22:40.382Z,17.33
2023-04-26T22:27:45.610Z,21.67
2023-04-26T22:32:55.108Z,17.33
2023-04-26T22:38:00.190Z,22.25
2023-04-26T22:43:05.428Z,22.00
2023-04-26T22:48:10.743Z,24.50
2023-04-26T22:53:15.649Z,26.25
2023-04-26T22:58:20.688Z,23.67
2023-04-26T23:03:26.544Z,20.67
2023-04-26T23:08:31.441Z,17.50
2023-04-26T23:13:37.635Z,14.00
2023-04-26T23:18:45.463Z,13.50
2023-04-26T23:23:51.684Z,27.33
2023-04-26T23:28:56.682Z,20.33
2023-04-26T23:34:01.754Z,20.50
2023-04-26T23:39:08.079Z,26.75
2023-04-26T23:44:13.262Z,30.50
2023-04-26T23:49:19.010Z,28.75
2023-04-26T23:54:24.084Z,14.25
2023-04-26T23:59:28.975Z,22.67
